Time;durP1;ratioP1;P1;durP2;ratioP2;P2;SDS_P1;SDS_P2;PMS_P1;PMS_P2;Temp;Humidity;BMP_temperature;BMP_pressure;BME280_temperature;BME280_humidity;BME280_pressure;Samples;Min_cycle;Max_cycle;Signal;HPM_P1;HPM_P2
2022/10/19 00:00:50;;;;;;;;;;;;;;;20.81;36.89;99721.34;4510256;31;34025;-86
2022/10/19 00:03:17;;;;;;;;;;;;;;;20.70;36.96;99727.72;4500115;31;33432;-88
2022/10/19 00:05:49;;;;;;;;;;;;;;;20.62;36.97;99728.75;4515197;31;33965;-87
2022/10/19 00:08:16;;;;;;;;;;;;;;;20.49;37.15;99724.59;4514502;31;34121;-86
2022/10/19 00:10:43;;;;;;;;;;;;;;;20.40;37.03;99720.34;4508694;31;34123;-87
2022/10/19 00:13:10;;;;;;;;;;;;;;;20.66;36.68;99711.13;4514655;31;33601;-86
2022/10/19 00:15:40;;;;;;;;;;;;;;;20.84;36.38;99715.16;4514301;31;33765;-86
2022/10/19 00:18:08;;;;;;;;;;;;;;;20.70;36.81;99718.06;4505086;31;34151;-86
2022/10/19 00:20:35;;;;;;;;;;;;;;;20.71;36.78;99706.59;4499738;31;34872;-88
2022/10/19 00:23:02;;;;;;;;;;;;;;;20.82;36.80;99706.41;4503574;31;33088;-87
2022/10/19 00:25:30;;;;;;;;;;;;;;;20.94;36.70;99700.88;4514811;31;34929;-89
2022/10/19 00:27:57;;;;;;;;;;;;;;;20.85;36.56;99696.66;4514879;31;35037;-89
2022/10/19 00:30:24;;;;;;;;;;;;;;;20.82;36.59;99706.41;4514470;31;34205;-93
2022/10/19 00:32:51;;;;;;;;;;;;;;;20.79;36.46;99702.03;4508992;31;32837;-88
2022/10/19 00:35:19;;;;;;;;;;;;;;;20.54;36.77;99706.09;4505389;31;33750;-86
2022/10/19 00:37:46;;;;;;;;;;;;;;;20.72;36.39;99703.09;4515113;31;34396;-87
2022/10/19 00:40:14;;;;;;;;;;;;;;;20.52;36.83;99705.22;4514460;31;34940;-87
2022/10/19 00:42:41;;;;;;;;;;;;;;;20.59;36.71;99698.94;4509757;31;33719;-88
2022/10/19 00:45:17;;;;;;;;;;;;;;;20.64;36.49;99681.28;4514282;31;34228;-86
2022/10/19 00:47:44;;;;;;;;;;;;;;;20.48;36.91;99691.22;4514474;31;34032;-88
2022/10/19 00:50:12;;;;;;;;;;;;;;;20.60;36.64;99682.25;4514126;31;34974;-88
2022/10/19 00:52:39;;;;;;;;;;;;;;;20.62;36.58;99680.47;4514135;31;34120;-87
2022/10/19 00:55:07;;;;;;;;;;;;;;;20.85;36.13;99678.22;4504066;31;33943;-86
2022/10/19 00:57:34;;;;;;;;;;;;;;;20.92;35.85;99657.00;4514572;31;35282;-90
2022/10/19 01:00:03;;;;;;;;;;;;;;;20.93;35.69;99650.84;4514432;31;34917;-86
2022/10/19 01:02:30;;;;;;;;;;;;;;;20.49;36.60;99655.22;4504095;31;32963;-87
2022/10/19 01:04:58;;;;;;;;;;;;;;;20.70;36.37;99659.22;4512181;31;34215;-88
2022/10/19 01:07:25;;;;;;;;;;;;;;;20.28;37.22;99656.50;4502175;31;34572;-87
2022/10/19 01:09:53;;;;;;;;;;;;;;;20.46;37.25;99657.94;4513938;31;34207;-87
2022/10/19 01:12:31;;;;;;;;;;;;;;;20.32;37.69;99651.16;4511897;31;33388;-87
2022/10/19 01:15:09;;;;;;;;;;;;;;;20.54;37.33;99654.28;4503674;31;34179;-88
2022/10/19 01:17:48;;;;;;;;;;;;;;;20.57;37.12;99648.94;4503556;31;34338;-87
2022/10/19 01:20:35;;;;;;;;;;;;;;;20.17;38.06;99651.44;4514174;31;34080;-86
2022/10/19 01:23:21;;;;;;;;;;;;;;;19.84;38.77;99640.59;4506850;31;33278;-87
2022/10/19 01:25:59;;;;;;;;;;;;;;;19.72;39.24;99638.19;4504839;31;35246;-86
2022/10/19 01:28:46;;;;;;;;;;;;;;;19.78;39.25;99629.34;4505776;31;35159;-90
2022/10/19 01:31:31;;;;;;;;;;;;;;;20.12;38.64;99640.13;4514287;31;34396;-87
2022/10/19 01:34:01;;;;;;;;;;;;;;;19.96;39.14;99638.66;4513980;31;34231;-88
2022/10/19 01:36:52;;;;;;;;;;;;;;;19.90;39.47;99632.63;4509272;31;34987;-87
2022/10/19 01:39:22;;;;;;;;;;;;;;;19.98;39.57;99627.22;4510741;31;34977;-87
2022/10/19 01:41:59;;;;;;;;;;;;;;;19.92;39.55;99622.91;4509262;31;34761;-87
2022/10/19 01:44:31;;;;;;;;;;;;;;;19.93;39.35;99618.56;4514130;31;33265;-87
2022/10/19 01:47:00;;;;;;;;;;;;;;;20.10;38.97;99618.22;4512346;31;34311;-86
2022/10/19 01:49:36;;;;;;;;;;;;;;;20.18;39.04;99613.69;4501345;31;34206;-87
2022/10/19 01:52:04;;;;;;;;;;;;;;;20.53;38.49;99609.50;4513109;31;34908;-88
2022/10/19 01:54:33;;;;;;;;;;;;;;;20.45;38.72;99606.13;4507127;31;32986;-87
2022/10/19 01:57:00;;;;;;;;;;;;;;;20.65;38.42;99596.97;4501425;31;33894;-86
2022/10/19 01:59:28;;;;;;;;;;;;;;;20.62;38.35;99598.78;4508125;31;35239;-88
2022/10/19 02:01:55;;;;;;;;;;;;;;;20.45;39.03;99611.41;4513475;31;35173;-87
2022/10/19 02:04:23;;;;;;;;;;;;;;;20.39;39.28;99613.28;4510011;31;34300;-88
2022/10/19 02:06:53;;;;;;;;;;;;;;;20.56;38.95;99606.81;4513758;31;33987;-87
2022/10/19 02:09:20;;;;;;;;;;;;;;;20.07;40.05;99623.53;4503928;31;34327;-87
2022/10/19 02:11:49;;;;;;;;;;;;;;;20.37;39.46;99617.69;4514149;31;34015;-91
2022/10/19 02:14:21;;;;;;;;;;;;;;;19.90;39.61;99626.50;4513815;31;33517;-88
2022/10/19 02:16:50;;;;;;;;;;;;;;;20.08;39.91;99628.78;4500032;31;34677;-86
2022/10/19 02:19:19;;;;;;;;;;;;;;;19.61;40.55;99626.97;4510470;31;34008;-88
2022/10/19 02:21:46;;;;;;;;;;;;;;;19.17;41.42;99618.88;4496886;31;33750;-86
2022/10/19 02:24:13;;;;;;;;;;;;;;;19.21;41.55;99627.59;4511271;31;33919;-88
2022/10/19 02:26:40;;;;;;;;;;;;;;;19.36;41.33;99615.97;4513345;31;34900;-88
2022/10/19 02:29:08;;;;;;;;;;;;;;;19.58;40.37;99611.22;4494402;31;35210;-88
2022/10/19 02:31:35;;;;;;;;;;;;;;;19.08;42.03;99621.63;4511475;31;34363;-88
2022/10/19 02:34:02;;;;;;;;;;;;;;;19.36;41.33;99626.50;4513032;31;33391;-87
2022/10/19 02:36:29;;;;;;;;;;;;;;;19.54;40.75;99620.06;4513546;31;34184;-86
2022/10/19 02:38:57;;;;;;;;;;;;;;;19.75;40.05;99621.50;4512980;31;34263;-89
2022/10/19 02:41:31;;;;;;;;;;;;;;;18.97;41.62;99628.81;4507071;31;34166;-91
2022/10/19 02:44:12;;;;;;;;;;;;;;;19.01;41.93;99617.34;4506142;31;34925;-87
2022/10/19 02:46:40;;;;;;;;;;;;;;;18.77;42.40;99609.81;4513061;31;33984;-87
2022/10/19 02:49:08;;;;;;;;;;;;;;;19.59;40.54;99610.34;4509800;31;34248;-87
2022/10/19 02:51:36;;;;;;;;;;;;;;;19.10;41.73;99613.75;4506781;31;33717;-93
2022/10/19 02:54:04;;;;;;;;;;;;;;;19.44;41.03;99620.22;4513629;31;33120;-88
2022/10/19 02:56:32;;;;;;;;;;;;;;;19.43;41.18;99618.50;4509394;31;34196;-88
2022/10/19 02:58:59;;;;;;;;;;;;;;;19.15;41.87;99619.78;4512005;31;34518;-87
2022/10/19 03:01:26;;;;;;;;;;;;;;;18.79;42.99;99616.81;4515568;31;34750;-87
2022/10/19 03:03:53;;;;;;;;;;;;;;;19.18;42.19;99625.88;4508934;31;33459;-87
2022/10/19 03:06:21;;;;;;;;;;;;;;;19.45;41.39;99624.56;4515091;31;35059;-88
2022/10/19 03:08:48;;;;;;;;;;;;;;;19.29;42.05;99628.34;4514996;31;35331;-87
2022/10/19 03:11:15;;;;;;;;;;;;;;;19.15;42.69;99628.53;4515327;31;34327;-88
2022/10/19 03:13:42;;;;;;;;;;;;;;;18.87;43.28;99633.34;4513221;31;33303;-93
2022/10/19 03:16:10;;;;;;;;;;;;;;;18.34;44.38;99632.22;4511658;31;34085;-87
2022/10/19 03:18:38;;;;;;;;;;;;;;;18.89;43.38;99636.78;4515164;31;33866;-86
2022/10/19 03:21:06;;;;;;;;;;;;;;;18.28;44.59;99642.75;4515500;31;34670;-92
2022/10/19 03:23:33;;;;;;;;;;;;;;;18.14;44.96;99648.16;4508201;31;34286;-93
2022/10/19 03:26:00;;;;;;;;;;;;;;;17.40;46.92;99640.03;4514407;31;33629;-87
2022/10/19 03:28:28;;;;;;;;;;;;;;;17.15;47.57;99643.69;4515074;31;33939;-87
2022/10/19 03:30:55;;;;;;;;;;;;;;;17.62;46.48;99634.63;4513876;31;34357;-87
2022/10/19 03:33:22;;;;;;;;;;;;;;;17.95;45.27;99629.09;4515631;31;33211;-86
2022/10/19 03:36:27;;;;;;;;;;;;;;;17.26;47.09;99641.88;4509308;31;34925;-88
2022/10/19 03:38:56;;;;;;;;;;;;;;;18.09;45.13;99642.09;4480182;31;35236;-88
2022/10/19 03:41:24;;;;;;;;;;;;;;;17.50;46.65;99636.47;4503238;31;34272;-94
2022/10/19 03:43:51;;;;;;;;;;;;;;;17.60;46.26;99639.00;4515203;31;34061;-87
2022/10/19 03:46:18;;;;;;;;;;;;;;;18.05;45.22;99645.63;4506468;31;33884;-86
2022/10/19 03:48:46;;;;;;;;;;;;;;;18.14;44.62;99652.53;4500111;31;34234;-87
2022/10/19 03:51:14;;;;;;;;;;;;;;;18.36;43.95;99640.06;4509089;31;34026;-87
2022/10/19 03:53:41;;;;;;;;;;;;;;;18.74;42.40;99647.50;4513228;31;34176;-87
2022/10/19 03:56:13;;;;;;;;;;;;;;;18.28;44.12;99652.41;4507424;31;33563;-88
2022/10/19 03:58:41;;;;;;;;;;;;;;;18.35;43.71;99644.44;4509165;31;33782;-94
2022/10/19 04:01:09;;;;;;;;;;;;;;;18.69;42.70;99647.53;4512187;31;34124;-86
2022/10/19 04:03:36;;;;;;;;;;;;;;;18.85;42.39;99644.75;4505356;31;33756;-88
2022/10/19 04:06:08;;;;;;;;;;;;;;;18.87;42.31;99641.22;4511340;31;34865;-93
2022/10/19 04:08:35;;;;;;;;;;;;;;;19.11;41.94;99641.75;4508842;31;33817;-94
2022/10/19 04:11:03;;;;;;;;;;;;;;;19.40;41.41;99634.31;4498225;31;33858;-88
2022/10/19 04:13:31;;;;;;;;;;;;;;;18.86;42.11;99635.97;4515295;31;32086;-86
2022/10/19 04:15:58;;;;;;;;;;;;;;;19.31;41.24;99649.34;4514618;31;34265;-87
2022/10/19 04:18:25;;;;;;;;;;;;;;;18.82;42.06;99645.63;4503799;31;33936;-87
2022/10/19 04:20:56;;;;;;;;;;;;;;;18.84;42.22;99654.38;4512331;31;33677;-88
2022/10/19 04:23:25;;;;;;;;;;;;;;;19.19;41.41;99653.88;4514599;31;33224;-86
2022/10/19 04:25:57;;;;;;;;;;;;;;;18.90;41.74;99662.19;4506222;31;34993;-87
2022/10/19 04:28:25;;;;;;;;;;;;;;;17.67;44.13;99661.69;4511572;31;35203;-88
2022/10/19 04:30:52;;;;;;;;;;;;;;;17.59;44.89;99666.13;4502328;31;34561;-86
2022/10/19 04:33:19;;;;;;;;;;;;;;;17.49;44.98;99663.56;4514914;31;33228;-87
2022/10/19 04:35:46;;;;;;;;;;;;;;;15.86;49.50;99653.72;4514428;31;34095;-89
2022/10/19 04:38:14;;;;;;;;;;;;;;;16.19;49.08;99658.91;4509941;31;34557;-87
2022/10/19 04:40:42;;;;;;;;;;;;;;;15.80;50.10;99652.00;4502464;31;34356;-89
2022/10/19 04:43:11;;;;;;;;;;;;;;;16.13;49.16;99644.97;4512433;31;33686;-87
2022/10/19 04:45:39;;;;;;;;;;;;;;;16.05;49.17;99658.06;4513536;31;35170;-87
2022/10/19 04:48:06;;;;;;;;;;;;;;;16.77;47.58;99663.97;4510077;31;35174;-87
2022/10/19 04:50:33;;;;;;;;;;;;;;;16.60;48.11;99671.00;4509697;31;34129;-88
2022/10/19 04:53:00;;;;;;;;;;;;;;;16.69;47.98;99664.84;4502519;31;33199;-87
2022/10/19 04:55:28;;;;;;;;;;;;;;;16.36;48.81;99661.47;4510992;31;34795;-92
2022/10/19 04:57:55;;;;;;;;;;;;;;;16.95;47.46;99649.06;4513425;31;34421;-87
2022/10/19 05:00:22;;;;;;;;;;;;;;;15.76;50.43;99639.81;4514809;31;35570;-87
2022/10/19 05:02:49;;;;;;;;;;;;;;;16.58;48.61;99633.50;4512700;31;34560;-89
2022/10/19 05:05:16;;;;;;;;;;;;;;;16.16;49.86;99637.97;4500095;31;33349;-88
2022/10/19 05:07:44;;;;;;;;;;;;;;;15.74;51.23;99638.91;4500291;31;33265;-92
2022/10/19 05:10:11;;;;;;;;;;;;;;;15.59;52.35;99634.53;4502631;31;33880;-88
2022/10/19 05:12:38;;;;;;;;;;;;;;;14.98;54.39;99637.94;4513779;31;34099;-92
2022/10/19 05:15:06;;;;;;;;;;;;;;;15.93;52.21;99643.25;4514943;31;33760;-88
2022/10/19 05:17:33;;;;;;;;;;;;;;;15.67;53.39;99658.97;4514693;31;35376;-88
2022/10/19 05:20:00;;;;;;;;;;;;;;;15.95;52.70;99658.97;4512708;31;34104;-86
2022/10/19 05:22:28;;;;;;;;;;;;;;;15.96;53.12;99658.94;4509081;31;33613;-88
2022/10/19 05:24:55;;;;;;;;;;;;;;;15.36;54.99;99660.66;4514920;31;34593;-90
2022/10/19 05:27:24;;;;;;;;;;;;;;;16.61;51.51;99653.56;4514965;31;33440;-89
2022/10/19 05:29:51;;;;;;;;;;;;;;;16.39;52.06;99653.62;4514753;31;33746;-88
2022/10/19 05:32:18;;;;;;;;;;;;;;;15.45;55.11;99651.94;4514688;31;32587;-87
2022/10/19 05:34:45;;;;;;;;;;;;;;;15.37;55.56;99653.69;4514754;31;34252;-88
2022/10/19 05:37:14;;;;;;;;;;;;;;;15.24;56.32;99665.87;4514561;31;35185;-89
2022/10/19 05:39:42;;;;;;;;;;;;;;;16.32;53.34;99664.97;4513439;31;33893;-91
2022/10/19 05:42:09;;;;;;;;;;;;;;;17.13;50.90;99655.97;4496156;31;32512;-93
2022/10/19 05:44:36;;;;;;;;;;;;;;;16.37;52.91;99670.22;4496037;31;33245;-92
2022/10/19 05:47:04;;;;;;;;;;;;;;;15.92;54.20;99670.28;4513552;31;33897;-94
2022/10/19 05:49:40;;;;;;;;;;;;;;;15.41;56.29;99666.75;4487749;31;35165;-94
2022/10/19 05:52:08;;;;;;;;;;;;;;;15.56;56.07;99674.59;4514597;31;33108;-93
2022/10/19 05:54:35;;;;;;;;;;;;;;;15.98;54.95;99675.50;4514366;31;34166;-94
2022/10/19 05:57:03;;;;;;;;;;;;;;;15.91;55.32;99673.78;4512972;31;34090;-89
2022/10/19 05:59:31;;;;;;;;;;;;;;;15.53;56.31;99677.22;4499991;31;33713;-94
2022/10/19 06:01:59;;;;;;;;;;;;;;;14.98;58.34;99689.31;4513752;31;33304;-92
2022/10/19 06:04:29;;;;;;;;;;;;;;;15.78;56.30;99685.09;4514294;31;34700;-92
2022/10/19 06:06:56;;;;;;;;;;;;;;;15.71;56.15;99683.34;4514565;31;34772;-93
2022/10/19 06:09:24;;;;;;;;;;;;;;;15.27;57.66;99686.78;4513308;31;33808;-92
2022/10/19 06:11:51;;;;;;;;;;;;;;;15.95;55.92;99675.53;4514244;31;33482;-94
2022/10/19 06:14:18;;;;;;;;;;;;;;;15.47;57.04;99690.28;4514345;31;33919;-91
2022/10/19 06:16:46;;;;;;;;;;;;;;;16.35;54.97;99701.59;4514340;31;34276;-93
2022/10/19 06:19:14;;;;;;;;;;;;;;;16.22;55.28;99702.50;4513653;31;34736;-94
2022/10/19 06:21:41;;;;;;;;;;;;;;;16.53;54.32;99700.69;4514408;31;33409;-92
2022/10/19 06:24:12;;;;;;;;;;;;;;;16.39;54.76;99708.56;4514013;31;34614;-92
2022/10/19 06:26:39;;;;;;;;;;;;;;;16.11;55.79;99707.75;4514910;31;34166;-92
2022/10/19 06:29:06;;;;;;;;;;;;;;;16.12;55.64;99708.62;4515089;31;33525;-94
2022/10/19 06:31:36;;;;;;;;;;;;;;;16.88;53.34;99707.59;4501768;31;32817;-93
2022/10/19 06:34:03;;;;;;;;;;;;;;;16.26;55.53;99717.34;4488555;31;32730;-93
2022/10/19 06:36:31;;;;;;;;;;;;;;;16.63;54.72;99720.75;4502123;31;35152;-92
2022/10/19 06:39:01;;;;;;;;;;;;;;;17.20;52.72;99720.53;4488760;31;33176;-92
2022/10/19 06:41:29;;;;;;;;;;;;;;;16.36;55.40;99721.66;4515938;31;33193;-93
2022/10/19 06:44:00;;;;;;;;;;;;;;;16.66;55.51;99718.09;4502348;31;34172;-91
2022/10/19 06:46:27;;;;;;;;;;;;;;;17.70;51.76;99720.22;4514881;31;35012;-92
2022/10/19 06:48:56;;;;;;;;;;;;;;;16.76;54.75;99718.97;4501621;31;33494;-91
2022/10/19 06:51:24;;;;;;;;;;;;;;;16.75;55.31;99725.09;4501393;31;31950;-91
2022/10/19 06:53:52;;;;;;;;;;;;;;;15.85;57.70;99731.28;4515863;31;34921;-92
2022/10/19 06:56:24;;;;;;;;;;;;;;;16.59;55.70;99729.44;4486307;31;34870;-91
2022/10/19 06:58:51;;;;;;;;;;;;;;;16.13;57.04;99739.12;4472950;31;33576;-91
2022/10/19 07:01:18;;;;;;;;;;;;;;;16.86;55.27;99736.41;4498873;31;33089;-92
2022/10/19 07:03:46;;;;;;;;;;;;;;;16.34;56.56;99735.63;4499022;31;34634;-92
2022/10/19 07:06:13;;;;;;;;;;;;;;;16.68;55.70;99746.91;4500293;31;34330;-91
2022/10/19 07:08:42;;;;;;;;;;;;;;;16.24;57.41;99750.47;4501355;31;34944;-91
2022/10/19 07:11:11;;;;;;;;;;;;;;;16.00;58.09;99757.44;4515953;31;34311;-91
2022/10/19 07:13:38;;;;;;;;;;;;;;;16.65;56.17;99746.91;4514858;31;34101;-91
2022/10/19 07:16:07;;;;;;;;;;;;;;;16.04;57.92;99756.56;4516003;31;34539;-91
2022/10/19 07:18:35;;;;;;;;;;;;;;;15.96;58.22;99750.47;4514687;31;34285;-90
2022/10/19 07:21:03;;;;;;;;;;;;;;;16.22;57.71;99758.31;4514858;31;33569;-91
2022/10/19 07:23:30;;;;;;;;;;;;;;;16.19;57.75;99757.44;4515723;31;33985;-90
2022/10/19 07:26:00;;;;;;;;;;;;;;;16.44;57.39;99764.41;4516053;31;34086;-91
2022/10/19 07:28:28;;;;;;;;;;;;;;;17.04;55.50;99761.62;4514643;31;34787;-90
2022/10/19 07:30:55;;;;;;;;;;;;;;;16.74;56.29;99766.13;4514647;31;32955;-90
2022/10/19 07:33:22;;;;;;;;;;;;;;;17.63;53.82;99768.34;4514649;31;34256;-91
2022/10/19 07:35:50;;;;;;;;;;;;;;;17.59;54.06;99758.75;4514036;31;34268;-91
2022/10/19 07:38:17;;;;;;;;;;;;;;;16.96;55.75;99769.53;4515679;31;35048;-90
2022/10/19 07:40:44;;;;;;;;;;;;;;;17.75;53.40;99764.78;4516042;31;34062;-93
2022/10/19 07:43:13;;;;;;;;;;;;;;;17.47;54.07;99775.44;4515674;31;34908;-90
2022/10/19 07:45:40;;;;;;;;;;;;;;;17.83;53.38;99772.59;4515610;31;35286;-91
2022/10/19 07:48:08;;;;;;;;;;;;;;;16.98;55.36;99780.03;4514396;31;32741;-90
2022/10/19 07:50:35;;;;;;;;;;;;;;;16.95;56.10;99778.28;4515902;31;33652;-91
2022/10/19 07:53:04;;;;;;;;;;;;;;;18.07;53.03;99784.66;4515593;31;34256;-92
2022/10/19 07:55:32;;;;;;;;;;;;;;;17.64;54.27;99782.31;4515763;31;34321;-91
2022/10/19 07:58:00;;;;;;;;;;;;;;;18.06;52.64;99773.31;4514490;31;34242;-91
2022/10/19 08:00:28;;;;;;;;;;;;;;;17.70;54.05;99766.56;4514170;31;32827;-92
2022/10/19 08:02:56;;;;;;;;;;;;;;;18.34;52.46;99773.09;4488530;31;33973;-92
2022/10/19 08:05:43;;;;;;;;;;;;;;;18.47;51.85;99774.69;4514551;31;34373;-91
2022/10/19 08:08:10;;;;;;;;;;;;;;;18.90;50.79;99776.91;4514272;31;34082;-91
2022/10/19 08:10:37;;;;;;;;;;;;;;;19.52;49.24;99761.25;4488072;31;33451;-92
2022/10/19 08:13:05;;;;;;;;;;;;;;;18.73;51.50;99766.59;4500621;31;33609;-91
2022/10/19 08:15:32;;;;;;;;;;;;;;;19.10;50.59;99751.28;4501141;31;34617;-92
2022/10/19 08:17:59;;;;;;;;;;;;;;;18.95;50.38;99757.59;4488025;31;33375;-92
2022/10/19 08:20:27;;;;;;;;;;;;;;;18.96;50.57;99755.81;4514408;31;33257;-92
2022/10/19 08:22:54;;;;;;;;;;;;;;;19.19;50.11;99764.28;4501165;31;35031;-91
2022/10/19 08:25:25;;;;;;;;;;;;;;;18.77;51.12;99763.03;4501290;31;33664;-92
2022/10/19 08:27:52;;;;;;;;;;;;;;;18.95;50.64;99768.09;4500667;31;33768;-92
2022/10/19 08:30:19;;;;;;;;;;;;;;;18.88;51.06;99776.94;4514654;31;33265;-91
2022/10/19 08:32:47;;;;;;;;;;;;;;;18.61;51.41;99772.81;4501243;31;33177;-92
2022/10/19 08:35:14;;;;;;;;;;;;;;;19.57;49.52;99772.56;4487746;31;33115;-91
2022/10/19 08:37:41;;;;;;;;;;;;;;;19.48;49.54;99772.69;4487859;31;34356;-91
2022/10/19 08:40:16;;;;;;;;;;;;;;;19.95;48.32;99765.88;4488758;31;32461;-92
2022/10/19 08:42:57;;;;;;;;;;;;;;;20.11;47.95;99765.59;4458984;31;920670;-92
2022/10/19 08:45:26;;;;;;;;;;;;;;;21.30;44.46;99759.88;4489598;31;32945;-92
2022/10/19 08:48:02;;;;;;;;;;;;;;;21.29;44.61;99762.53;4487772;31;33410;-92
2022/10/19 08:50:35;;;;;;;;;;;;;;;21.45;44.54;99765.75;4488048;31;32507;-92
2022/10/19 08:53:04;;;;;;;;;;;;;;;22.39;42.02;99767.94;4487776;31;33898;-92
2022/10/19 08:55:40;;;;;;;;;;;;;;;21.24;44.76;99767.03;4487816;31;33590;-91
2022/10/19 08:58:27;;;;;;;;;;;;;;;21.13;44.18;99769.91;4500631;31;33724;-92
2022/10/19 09:00:57;;;;;;;;;;;;;;;21.04;44.67;99760.41;4513921;31;33282;-91
2022/10/19 09:03:56;;;;;;;;;;;;;;;21.30;43.96;99767.78;4500777;31;34851;-91
2022/10/19 09:06:28;;;;;;;;;;;;;;;20.87;44.95;99773.94;4471449;31;33539;-92
2022/10/19 09:08:56;;;;;;;;;;;;;;;20.40;45.81;99757.22;4487697;31;34709;-92
2022/10/19 09:11:24;;;;;;;;;;;;;;;20.92;45.74;99765.06;4487785;31;33311;-92
2022/10/19 09:14:01;;;;;;;;;;;;;;;20.59;46.04;99767.44;4487890;31;33418;-92
2022/10/19 09:16:33;;;;;;;;;;;;;;;21.13;44.96;99759.34;4501298;31;33605;-93
2022/10/19 09:19:01;;;;;;;;;;;;;;;21.93;42.11;99768.16;4500743;31;34077;-91
2022/10/19 09:21:31;;;;;;;;;;;;;;;21.21;43.42;99769.72;4500513;31;33918;-91
2022/10/19 09:24:24;;;;;;;;;;;;;;;21.93;42.21;99757.59;4490772;31;33538;-94
2022/10/19 09:26:52;;;;;;;;;;;;;;;22.76;39.35;99765.16;4500745;31;33102;-93
2022/10/19 09:29:25;;;;;;;;;;;;;;;22.19;40.95;99760.50;4488119;31;33750;-92
2022/10/19 09:31:53;;;;;;;;;;;;;;;21.99;41.07;99765.37;4487005;31;34055;-91
2022/10/19 09:34:23;;;;;;;;;;;;;;;21.84;41.31;99763.97;4500769;31;33602;-92
2022/10/19 09:36:57;;;;;;;;;;;;;;;22.53;39.58;99764.91;4501047;31;33999;-93
2022/10/19 09:39:25;;;;;;;;;;;;;;;22.85;38.75;99768.47;4500691;31;34519;-93
2022/10/19 09:42:03;;;;;;;;;;;;;;;23.21;39.02;99764.78;4488311;31;32299;-92
2022/10/19 09:44:31;;;;;;;;;;;;;;;22.48;40.45;99769.44;4500339;31;33189;-92
2022/10/19 09:47:17;;;;;;;;;;;;;;;21.96;41.12;99778.66;4487500;31;33404;-92
2022/10/19 09:49:45;;;;;;;;;;;;;;;22.28;40.50;99769.97;4500215;31;33655;-91
2022/10/19 09:52:35;;;;;;;;;;;;;;;21.93;41.38;99778.72;4487578;31;32002;-91
2022/10/19 09:55:04;;;;;;;;;;;;;;;21.58;41.84;99775.13;4503538;31;34986;-91
2022/10/19 09:57:31;;;;;;;;;;;;;;;21.40;41.76;99778.16;4486756;31;33450;-92
2022/10/19 09:59:58;;;;;;;;;;;;;;;21.30;41.35;99767.78;4499425;31;33559;-92
2022/10/19 10:02:30;;;;;;;;;;;;;;;21.41;41.36;99770.22;4487127;31;32971;-92
2022/10/19 10:05:03;;;;;;;;;;;;;;;21.06;41.79;99770.91;4487562;31;33629;-92
2022/10/19 10:07:36;;;;;;;;;;;;;;;20.76;41.71;99754.84;4487465;31;33022;-92
2022/10/19 10:10:08;;;;;;;;;;;;;;;21.44;40.10;99758.72;4499989;31;34136;-92
2022/10/19 10:12:35;;;;;;;;;;;;;;;21.72;39.14;99754.56;4487256;31;31632;-92
2022/10/19 10:15:03;;;;;;;;;;;;;;;21.80;39.46;99757.87;4486934;31;32503;-92
2022/10/19 10:17:30;;;;;;;;;;;;;;;21.72;38.82;99749.28;4500209;31;32732;-92
2022/10/19 10:19:57;;;;;;;;;;;;;;;22.19;37.77;99755.22;4499956;31;34241;-92
2022/10/19 10:22:29;;;;;;;;;;;;;;;21.84;38.24;99756.91;4499812;31;33515;-92
2022/10/19 10:24:56;;;;;;;;;;;;;;;21.44;38.92;99753.44;4487341;31;33620;-92
2022/10/19 10:27:31;;;;;;;;;;;;;;;21.96;37.80;99744.31;4499952;31;33871;-92
2022/10/19 10:29:58;;;;;;;;;;;;;;;21.86;38.01;99748.97;4487147;31;33931;-92
2022/10/19 10:32:27;;;;;;;;;;;;;;;22.00;37.26;99738.91;4512888;31;34105;-91
2022/10/19 10:35:01;;;;;;;;;;;;;;;22.50;36.74;99733.28;4486699;31;33145;-92
2022/10/19 10:37:35;;;;;;;;;;;;;;;22.19;36.54;99734.06;4486727;31;33187;-92
2022/10/19 10:40:03;;;;;;;;;;;;;;;22.56;35.68;99733.97;4512736;31;33247;-91
2022/10/19 10:42:33;;;;;;;;;;;;;;;21.64;37.84;99730.12;4486834;31;31965;-92
2022/10/19 10:45:01;;;;;;;;;;;;;;;21.40;37.78;99726.25;4486601;31;34651;-92
2022/10/19 10:47:28;;;;;;;;;;;;;;;22.64;37.09;99728.47;4486386;31;34479;-93
2022/10/19 10:50:04;;;;;;;;;;;;;;;22.08;37.22;99728.16;4499333;31;33006;-92
2022/10/19 10:52:32;;;;;;;;;;;;;;;22.39;37.19;99724.75;4486467;31;32599;-92
2022/10/19 10:55:01;;;;;;;;;;;;;;;21.80;37.07;99710.38;4486612;31;33894;-92
2022/10/19 10:57:36;;;;;;;;;;;;;;;22.22;36.97;99714.66;4486424;31;32976;-92
2022/10/19 11:00:11;;;;;;;;;;;;;;;22.85;35.19;99707.66;4499852;31;34351;-92
2022/10/19 11:02:39;;;;;;;;;;;;;;;22.57;35.96;99697.84;4499516;31;33763;-93
2022/10/19 11:05:13;;;;;;;;;;;;;;;22.22;33.93;99704.94;4486495;31;33217;-92
2022/10/19 11:07:42;;;;;;;;;;;;;;;21.99;33.75;99697.59;4498909;31;33555;-92
2022/10/19 11:10:15;;;;;;;;;;;;;;;22.24;32.44;99695.22;4500649;31;33788;-92
2022/10/19 11:12:45;;;;;;;;;;;;;;;22.48;31.81;99692.84;4501751;31;33283;-91
2022/10/19 11:15:19;;;;;;;;;;;;;;;21.87;33.42;99679.44;4501623;31;32876;-91
2022/10/19 11:17:50;;;;;;;;;;;;;;;21.86;33.50;99685.62;4488525;31;33871;-92
2022/10/19 11:20:18;;;;;;;;;;;;;;;22.21;33.87;99691.81;4488318;31;34562;-93
2022/10/19 11:22:53;;;;;;;;;;;;;;;21.91;34.86;99680.22;4488507;31;33444;-92
2022/10/19 11:25:44;;;;;;;;;;;;;;;22.30;34.70;99688.91;4501513;31;33527;-91
2022/10/19 11:28:16;;;;;;;;;;;;;;;22.11;34.91;99688.47;4501525;31;32773;-92
2022/10/19 11:30:52;;;;;;;;;;;;;;;22.11;35.07;99686.72;4501517;31;34058;-91
2022/10/19 11:33:38;;;;;;;;;;;;;;;22.21;35.59;99690.03;4501736;31;33213;-92
2022/10/19 11:36:28;;;;;;;;;;;;;;;22.43;35.45;99681.53;4514047;31;33533;-92
2022/10/19 11:38:55;;;;;;;;;;;;;;;22.95;34.80;99680.06;4488454;31;34654;-92
2022/10/19 11:41:42;;;;;;;;;;;;;;;22.59;35.66;99674.91;4500857;31;33222;-92
2022/10/19 11:44:09;;;;;;;;;;;;;;;22.24;35.98;99679.38;4501498;31;32146;-92
2022/10/19 11:46:47;;;;;;;;;;;;;;;21.66;37.41;99670.25;4514643;31;34574;-92
2022/10/19 11:49:20;;;;;;;;;;;;;;;21.77;37.60;99670.84;4501248;31;34188;-91
2022/10/19 11:51:50;;;;;;;;;;;;;;;21.70;37.18;99674.56;4514345;31;33723;-92
2022/10/19 11:54:17;;;;;;;;;;;;;;;22.00;36.08;99669.41;4501404;31;32344;-92
2022/10/19 11:56:53;;;;;;;;;;;;;;;22.36;35.65;99678.19;4514547;31;33889;-92
2022/10/19 11:59:53;;;;;;;;;;;;;;;21.99;36.20;99672.97;4492169;31;33650;-92
2022/10/19 12:02:53;;;;;;;;;;;;;;;21.92;35.50;99672.25;4515629;31;34203;-92
2022/10/19 12:05:23;;;;;;;;;;;;;;;21.19;36.58;99666.94;4515783;31;34060;-92
2022/10/19 12:07:54;;;;;;;;;;;;;;;20.90;37.17;99657.87;4514714;31;33703;-93
2022/10/19 12:10:31;;;;;;;;;;;;;;;20.96;37.29;99664.81;4515880;31;35127;-92
2022/10/19 12:13:02;;;;;;;;;;;;;;;21.17;36.77;99655.53;4514307;31;34195;-92
2022/10/19 12:15:43;;;;;;;;;;;;;;;21.85;36.22;99654.81;4501254;31;34291;-93
2022/10/19 12:18:15;;;;;;;;;;;;;;;22.41;36.07;99654.28;4514608;31;33911;-93
2022/10/19 12:20:47;;;;;;;;;;;;;;;22.16;35.81;99664.63;4514164;31;33748;-93
2022/10/19 12:23:20;;;;;;;;;;;;;;;21.51;37.48;99654.78;4515214;31;34132;-91
2022/10/19 12:25:47;;;;;;;;;;;;;;;21.90;36.31;99658.25;4514325;31;33048;-92
2022/10/19 12:28:21;;;;;;;;;;;;;;;21.45;36.94;99660.25;4514179;31;35071;-93
2022/10/19 12:30:49;;;;;;;;;;;;;;;21.85;36.07;99653.06;4513974;31;34223;-92
2022/10/19 12:33:24;;;;;;;;;;;;;;;21.27;37.33;99650.94;4513971;31;34585;-93
2022/10/19 12:35:58;;;;;;;;;;;;;;;21.27;37.34;99651.81;4514195;31;33449;-92
2022/10/19 12:38:32;;;;;;;;;;;;;;;21.59;37.65;99647.56;4515475;31;33885;-92
2022/10/19 12:41:04;;;;;;;;;;;;;;;22.19;37.17;99649.56;4514116;31;34314;-92
2022/10/19 12:43:34;;;;;;;;;;;;;;;21.57;37.51;99644.97;4513954;31;34037;-93
2022/10/19 12:46:24;;;;;;;;;;;;;;;21.96;37.16;99642.22;4515667;31;32720;-93
2022/10/19 12:49:11;;;;;;;;;;;;;;;21.93;36.55;99630.88;4514006;31;33784;-93
2022/10/19 12:51:45;;;;;;;;;;;;;;;22.05;36.18;99644.63;4485327;31;35404;-93
2022/10/19 12:54:12;;;;;;;;;;;;;;;21.20;37.41;99637.03;4498151;31;34718;-92
2022/10/19 12:56:46;;;;;;;;;;;;;;;21.53;37.04;99645.09;4485035;31;33756;-94
2022/10/19 12:59:23;;;;;;;;;;;;;;;22.36;34.45;99621.84;4471875;31;32998;-92
2022/10/19 13:01:51;;;;;;;;;;;;;;;22.18;33.96;99621.44;4484726;31;33130;-92
2022/10/19 13:04:20;;;;;;;;;;;;;;;21.25;34.01;99619.34;4484668;31;33112;-93